Time;durP1;ratioP1;P1;durP2;ratioP2;P2;SDS_P1;SDS_P2;PMS_P1;PMS_P2;Temp;Humidity;BMP_temperature;BMP_pressure;BME280_temperature;BME280_humidity;BME280_pressure;Samples;Min_cycle;Max_cycle;Signal;HPM_P1;HPM_P2
2022/03/09 00:03:07;;;;;;;;;;;-0.70;99.90;;;-1.93;60.27;96106.91;10533626;28;1481;-77
2022/03/09 00:08:10;;;;;;;;;;;-0.80;99.90;;;-1.78;60.33;96117.41;10522938;28;1817;-75
2022/03/09 00:13:13;;;;;;;;;;;-0.80;99.90;;;-1.90;60.43;96122.38;10539510;28;1847;-75
2022/03/09 00:18:16;;;;;;;;;;;-0.80;99.90;;;-2.04;62.23;96133.75;10541695;28;1976;-75
2022/03/09 00:23:20;;;;;;;;;;;;;;;-2.15;61.55;96131.63;10528740;28;1857;-76
2022/03/09 00:28:26;;;;;;;;;;;;;;;-2.19;62.54;96124.06;10545189;28;1871;-77
2022/03/09 00:33:31;;;;;;;;;;;;;;;-2.17;61.57;96123.88;10540953;28;1906;-75
2022/03/09 00:38:34;;;;;;;;;;;;;;;-2.23;62.22;96127.25;10550850;28;1985;-76
2022/03/09 00:43:38;;;;;;;;;;;;;;;-2.39;63.21;96128.28;10529885;28;1756;-74
2022/03/09 00:48:41;;;;;;;;;;;;;;;-2.43;63.70;96132.28;10523625;28;1866;-76
2022/03/09 00:53:45;;;;;;;;;;;;;;;-2.58;64.78;96145.47;10522918;28;1842;-77
2022/03/09 00:58:48;;;;;;;;;;;;;;;-2.57;64.04;96119.97;10534989;28;1978;-76
2022/03/09 01:03:52;;;;;;;;;;;;;;;-2.58;65.81;96126.22;10522047;28;1810;-76
2022/03/09 01:08:57;;;;;;;;;;;;;;;-2.58;65.48;96120.97;10525090;28;1860;-76
2022/03/09 01:14:01;;;;;;;;;;;;;;;-2.67;66.45;96120.25;10517782;28;1806;-77
2022/03/09 01:19:04;;;;;;;;;;;;;;;-2.61;65.93;96114.25;10532899;28;1957;-76
2022/03/09 01:24:08;;;;;;;;;;;;;;;-2.58;65.92;96111.25;10504857;28;2185;-75
2022/03/09 01:29:12;;;;;;;;;;;;;;;-2.52;66.91;96101.81;10533101;28;2093;-76
2022/03/09 01:34:16;;;;;;;;;;;;;;;-2.64;66.82;96103.28;10524490;28;2047;-77
2022/03/09 01:39:20;;;;;;;;;;;;;;;-2.83;67.24;96105.47;10521958;28;1947;-77
2022/03/09 01:44:26;;;;;;;;;;;;;;;-2.97;67.71;96105.47;10543973;28;1904;-76
2022/03/09 01:49:30;;;;;;;;;;;;;;;-2.92;68.66;96095.22;10545895;28;1934;-76
2022/03/09 01:54:34;;;;;;;;;;;;;;;-2.87;69.38;96095.47;10522309;28;1874;-77
2022/03/09 01:59:38;;;;;;;;;;;;;;;-3.02;70.38;96101.56;10539982;28;1958;-77
2022/03/09 02:04:41;;;;;;;;;;;;;;;-2.90;70.24;96095.84;10525834;28;2159;-76
2022/03/09 02:09:45;;;;;;;;;;;;;;;-2.88;70.77;96096.47;10502891;22;2652;-70
2022/03/09 02:14:51;;;;;;;;;;;;;;;-2.83;70.04;96088.84;10580535;22;3764;-66
2022/03/09 02:20:03;;;;;;;;;;;;;;;-2.77;70.37;96094.22;10559449;27;1914;-67
2022/03/09 02:25:08;;;;;;;;;;;;;;;-2.97;71.40;96098.38;10516174;28;2005;-67
2022/03/09 02:30:12;;;;;;;;;;;;;;;-3.06;71.03;96104.72;10538232;28;1982;-66
2022/03/09 02:35:35;;;;;;;;;;;;;;;-3.15;72.12;96105.81;10530294;28;1950;-67
2022/03/09 02:40:39;;;;;;;;;;;;;;;-3.24;72.51;96099.84;10529507;28;1923;-68
2022/03/09 02:45:44;;;;;;;;;;;;;;;-3.14;73.59;96096.94;10529060;28;2029;-68
2022/03/09 02:50:47;;;;;;;;;;;;;;;-3.07;73.49;96097.84;10524189;28;1973;-68
2022/03/09 02:55:51;;;;;;;;;;;;;;;-3.00;74.45;96098.75;10528103;28;1764;-66
2022/03/09 03:00:55;;;;;;;;;;;;;;;-2.88;73.49;96101.75;10514212;28;1968;-67
2022/03/09 03:05:59;;;;;;;;;;;;;;;-2.93;73.46;96094.38;10528083;28;2027;-67
2022/03/09 03:11:03;;;;;;;;;;;;;;;-2.96;73.48;96092.13;10528272;28;2116;-67
2022/03/09 03:16:07;;;;;;;;;;;;;;;-3.03;74.39;96094.66;10556252;28;1863;-66
2022/03/09 03:21:11;;;;;;;;;;;;;;;-3.01;74.00;96097.94;10572491;28;2199;-66
2022/03/09 03:26:15;;;;;;;;;;;;;;;-3.14;74.97;96107.44;10571371;28;1857;-66
2022/03/09 03:31:21;;;;;;;;;;;;;;;-3.09;74.24;96120.88;10526398;28;1911;-65
2022/03/09 03:36:27;;;;;;;;;;;;;;;-3.06;73.58;96125.75;10515564;28;2092;-67
2022/03/09 03:41:31;;;;;;;;;;;;;;;-2.92;72.85;96132.88;10528892;28;1942;-66
2022/03/09 03:46:34;;;;;;;;;;;;;;;-2.79;71.38;96140.94;10526430;28;1934;-67
2022/03/09 03:51:38;;;;;;;;;;;;;;;-2.89;71.59;96129.03;10526228;28;2040;-68
2022/03/09 03:56:41;;;;;;;;;;;;;;;-3.22;74.46;96132.00;10515307;28;1944;-65
2022/03/09 04:01:45;;;;;;;;;;;;;;;-3.27;73.51;96139.59;10540195;28;1985;-67
2022/03/09 04:06:48;;;;;;;;;;;;;;;-3.24;74.42;96146.31;10544143;28;1948;-66
2022/03/09 04:11:52;;;;;;;;;;;;;;;-3.26;73.86;96152.56;10542901;28;1950;-65
2022/03/09 04:16:58;;;;;;;;;;;;;;;-3.29;73.64;96160.81;10539409;28;1993;-66
2022/03/09 04:22:01;;;;;;;;;;;;;;;-3.23;74.38;96169.00;10520999;28;1923;-65
2022/03/09 04:27:05;;;;;;;;;;;;;;;-3.38;75.75;96164.50;10545045;28;2005;-67
2022/03/09 04:32:08;;;;;;;;;;;;;;;-3.38;75.58;96168.94;10530163;28;1957;-69
2022/03/09 04:37:12;;;;;;;;;;;;;;;-3.55;77.21;96178.78;10535583;28;1981;-68
2022/03/09 04:42:15;;;;;;;;;;;;;;;-3.58;78.65;96179.94;10531358;28;1977;-68
2022/03/09 04:47:19;;;;;;;;;;;;;;;-3.57;78.13;96176.31;10530141;28;2056;-67
2022/03/09 04:52:23;;;;;;;;;;;;;;;-3.58;77.75;96179.13;10539132;28;1956;-68
2022/03/09 04:57:26;;;;;;;;;;;;;;;-3.45;77.43;96179.34;10540935;28;1845;-66
2022/03/09 05:02:29;;;;;;;;;;;;;;;-3.40;76.90;96186.72;10534933;28;2001;-68
2022/03/09 05:07:33;;;;;;;;;;;;;;;-3.35;76.83;96185.19;10553165;28;2036;-67
2022/03/09 05:12:37;;;;;;;;;;;;;;;-3.29;75.98;96200.25;10554215;28;1943;-66
2022/03/09 05:17:40;;;;;;;;;;;;;;;-3.27;75.14;96211.41;10550208;28;2141;-66
2022/03/09 05:22:44;;;;;;;;;;;;;;;-3.30;74.36;96206.53;10546261;28;2090;-68
2022/03/09 05:27:48;;;;;;;;;;;;;;;-3.32;74.23;96210.31;10544250;28;1917;-67
2022/03/09 05:32:52;;;;;;;;;;;;;;;-3.42;74.93;96209.75;10531825;28;2143;-66
2022/03/09 05:37:55;;;;;;;;;;;;;;;-3.48;75.68;96216.50;10524522;28;2050;-67
2022/03/09 05:42:59;;;;;;;;;;;;;;;-3.45;75.26;96216.16;10512016;28;1911;-65
2022/03/09 05:48:04;;;;;;;;;;;;;;;-3.40;74.93;96210.38;10511067;28;1918;-67
2022/03/09 05:53:08;;;;;;;;;;;;;;;-3.49;75.51;96204.38;10528167;28;1969;-67
2022/03/09 05:58:11;;;;;;;;;;;;;;;-3.54;77.02;96217.22;10532594;28;1926;-68
2022/03/09 06:03:14;;;;;;;;;;;;;;;-3.32;76.03;96216.38;10532879;28;1918;-68
2022/03/09 06:08:18;;;;;;;;;;;;;;;-3.18;75.70;96222.69;10531792;28;1990;-68
2022/03/09 06:13:25;;;;;;;;;;;;;;;-3.01;76.42;96218.09;10527260;28;2133;-65
2022/03/09 06:18:29;;;;;;;;;;;;;;;-2.80;75.06;96213.00;10525736;28;1930;-65
2022/03/09 06:23:32;;;;;;;;;;;;;;;-2.73;74.30;96216.53;10513118;28;1988;-65
2022/03/09 06:28:36;;;;;;;;;;;;;;;-2.54;73.10;96209.09;10520900;28;1941;-64
2022/03/09 06:33:39;;;;;;;;;;;;;;;-2.40;71.61;96216.19;10511133;28;2272;-67
2022/03/09 06:38:42;;;;;;;;;;;;;;;-2.24;70.51;96217.78;10512366;28;1807;-67
2022/03/09 06:43:46;;;;;;;;;;;;;;;-2.02;69.29;96218.69;10530376;28;1985;-68
2022/03/09 06:48:50;;;;;;;;;;;;;;;-1.86;68.44;96213.19;10514434;28;1978;-65
2022/03/09 06:53:53;;;;;;;;;;;;;;;-1.74;67.75;96217.00;10526871;28;1843;-68
2022/03/09 06:58:56;;;;;;;;;;;;;;;-1.55;67.07;96217.41;10524728;28;1990;-68
2022/03/09 07:04:00;;;;;;;;;;;;;;;-1.38;65.67;96221.44;10524543;28;1943;-65
2022/03/09 07:09:03;;;;;;;;;;;;;;;-0.99;63.05;96210.41;10521864;28;1905;-65
2022/03/09 07:14:06;;;;;;;;;;;;;;;-0.60;60.14;96222.28;10527655;28;1911;-66
2022/03/09 07:19:10;;;;;;;;;;;;;;;-0.44;58.64;96227.28;10527015;28;1776;-67
2022/03/09 07:24:13;;;;;;;;;;;;;;;-0.35;58.73;96225.28;10511939;28;1822;-65
2022/03/09 07:29:17;;;;;;;;;;;;;;;-0.13;56.67;96231.28;10531296;28;1850;-68
2022/03/09 07:34:22;;;;;;;;;;;;;;;-0.16;57.08;96231.69;10529178;28;1852;-68
2022/03/09 07:39:26;;;;;;;;;;;;;;;-0.09;56.69;96238.66;10508865;28;1915;-70
2022/03/09 07:44:29;;;;;;;;;;;;;;;0.01;55.38;96237.50;10508599;28;1838;-69
2022/03/09 07:49:33;;;;;;;;;;;;;;;0.06;55.01;96245.63;10524192;28;1816;-68
2022/03/09 07:54:37;;;;;;;;;;;;;;;0.16;54.71;96260.13;10527871;28;1812;-68
2022/03/09 07:59:41;;;;;;;;;;;;;;;0.21;55.08;96264.84;10528936;28;1969;-66
2022/03/09 08:04:44;;;;;;;;;;;;;;;0.54;53.77;96252.53;10527989;28;1986;-67
2022/03/09 08:09:47;;;;;;;;;;;;;;;0.60;54.49;96268.63;10507222;28;1862;-67
2022/03/09 08:14:52;;;;;;;;;;;;;;;0.65;54.40;96268.88;10508206;28;1837;-68
2022/03/09 08:19:55;;;;;;;;;;;;;;;0.76;53.77;96268.25;10511081;28;2005;-66
2022/03/09 08:24:59;;;;;;;;;;;;;;;1.04;53.03;96279.53;10524469;28;1848;-64
2022/03/09 08:30:02;;;;;;;;;;;;;;;1.18;52.06;96277.72;10533411;28;1957;-65
2022/03/09 08:35:06;;;;;;;;;;;;;;;1.29;51.49;96284.25;10539545;28;2033;-68
2022/03/09 08:40:10;;;;;;;;;;;;;;;1.61;50.56;96283.44;10514892;28;1910;-68
2022/03/09 08:45:14;;;;;;;;;;;;;;;1.71;49.62;96276.91;10528546;28;1856;-68
2022/03/09 08:50:18;;;;;;;;;;;;;;;2.03;49.54;96276.03;10529651;28;1612;-67
2022/03/09 08:55:34;;;;;;;;;;;;;;;2.47;47.83;96276.31;10524936;28;1825;-67
2022/03/09 09:00:38;;;;;;;;;;;;;;;2.54;47.15;96277.09;10517978;28;1981;-66
2022/03/09 09:05:45;;;;;;;;;;;3.40;99.90;;;2.80;46.99;96265.53;10520520;28;1782;-67
2022/03/09 09:10:50;;;;;;;;;;;;;;;3.14;46.25;96262.47;10525339;28;1939;-68
2022/03/09 09:15:53;;;;;;;;;;;3.70;99.90;;;3.52;47.05;96259.75;10540323;28;1833;-67
2022/03/09 09:20:56;;;;;;;;;;;3.90;99.90;;;3.76;45.34;96255.44;10526140;28;2052;-69
2022/03/09 09:26:00;;;;;;;;;;;4.20;99.90;;;4.03;42.75;96257.84;10504286;28;1825;-67
2022/03/09 09:31:04;;;;;;;;;;;4.50;99.90;;;4.21;41.39;96255.19;10521356;28;1818;-69
2022/03/09 09:36:06;;;;;;;;;;;4.80;99.90;;;4.28;40.56;96258.59;10511200;28;2205;-69
2022/03/09 09:41:13;;;;;;;;;;;5.00;99.90;;;4.44;40.07;96267.00;10524219;28;1906;-67
2022/03/09 09:46:17;;;;;;;;;;;5.10;99.90;;;4.65;38.39;96253.25;10511533;28;1891;-69
2022/03/09 09:51:20;;;;;;;;;;;5.30;99.90;;;4.63;38.94;96252.66;10533540;28;1864;-67
2022/03/09 09:56:23;;;;;;;;;;;5.40;99.90;;;4.66;37.77;96254.88;10560235;28;1803;-68
2022/03/09 10:01:27;;;;;;;;;;;5.40;99.90;;;5.12;37.03;96242.75;10522477;28;1981;-68
2022/03/09 10:06:32;;;;;;;;;;;5.70;99.90;;;5.26;36.44;96244.19;10536915;28;1871;-68
2022/03/09 10:11:35;;;;;;;;;;;5.90;99.90;;;5.22;35.62;96235.03;10544718;28;1855;-67
2022/03/09 10:16:39;;;;;;;;;;;6.10;99.90;;;5.51;34.50;96243.19;10529128;28;1881;-67
2022/03/09 10:21:43;;;;;;;;;;;6.20;99.90;;;5.63;35.11;96246.69;10534014;28;1917;-68
2022/03/09 10:26:46;;;;;;;;;;;;;;;5.91;33.56;96238.81;10516443;28;1783;-67
2022/03/09 10:31:50;;;;;;;;;;;;;;;6.06;33.03;96242.91;10527228;28;1600;-68
2022/03/09 10:36:55;;;;;;;;;;;6.20;99.90;;;5.92;31.62;96234.34;10530608;28;1619;-68
2022/03/09 10:41:58;;;;;;;;;;;6.80;93.70;;;6.12;32.00;96236.63;10527591;28;1909;-67
2022/03/09 10:47:02;;;;;;;;;;;7.00;89.20;;;6.22;31.97;96237.66;10524950;28;1832;-67
2022/03/09 10:52:05;;;;;;;;;;;7.00;87.40;;;6.15;32.03;96230.81;10522891;28;1851;-69
2022/03/09 10:57:08;;;;;;;;;;;7.10;85.80;;;6.41;31.95;96235.63;10520273;28;1802;-66
2022/03/09 11:02:11;;;;;;;;;;;7.20;86.90;;;6.54;32.48;96225.75;10514281;28;2035;-69
2022/03/09 11:07:15;;;;;;;;;;;7.30;87.70;;;6.62;31.23;96215.50;10547971;28;1848;-69
2022/03/09 11:12:22;;;;;;;;;;;;;;;6.55;29.90;96219.34;10557541;28;1923;-67
2022/03/09 11:17:25;;;;;;;;;;;7.40;79.50;;;6.87;28.88;96222.38;10523489;28;1938;-66
2022/03/09 11:22:28;;;;;;;;;;;7.50;77.90;;;6.86;28.65;96220.75;10549579;28;1987;-68
2022/03/09 11:27:31;;;;;;;;;;;7.70;77.40;;;6.99;28.73;96215.09;10529571;28;1825;-67
2022/03/09 11:32:34;;;;;;;;;;;7.80;76.70;;;6.85;29.04;96211.91;10524726;28;1801;-67
2022/03/09 11:37:37;;;;;;;;;;;7.80;77.00;;;7.04;28.95;96199.97;10527148;28;1828;-68
2022/03/09 11:42:41;;;;;;;;;;;7.80;76.60;;;7.13;29.34;96196.94;10533104;28;1971;-66
2022/03/09 11:47:44;;;;;;;;;;;7.90;77.80;;;7.00;28.09;96204.19;10559814;28;2018;-67
2022/03/09 11:52:53;;;;;;;;;;;7.90;77.10;;;7.13;29.93;96195.06;10553361;28;1557;-66
2022/03/09 11:57:58;;;;;;;;;;;8.00;78.40;;;7.22;29.86;96198.94;10504261;22;2136;-77
2022/03/09 12:03:01;;;;;;;;;;;8.10;78.50;;;7.38;30.09;96188.50;10480752;28;1918;-78
2022/03/09 12:08:04;;;;;;;;;;;8.40;79.20;;;7.54;29.89;96183.16;10485443;28;2019;-76
2022/03/09 12:13:07;;;;;;;;;;;8.30;78.10;;;7.45;30.90;96179.28;10471080;28;1825;-78
2022/03/09 12:18:10;;;;;;;;;;;8.30;78.20;;;7.64;29.55;96169.13;10492507;28;2117;-76
2022/03/09 12:23:15;;;;;;;;;;;8.40;77.60;;;7.59;28.67;96169.06;10494501;28;1977;-76
2022/03/09 12:28:18;;;;;;;;;;;8.50;78.00;;;7.71;28.58;96160.94;10506603;28;1979;-79
2022/03/09 12:33:21;;;;;;;;;;;8.50;77.50;;;7.78;28.91;96165.06;10480260;28;1808;-79
2022/03/09 12:38:25;;;;;;;;;;;8.60;76.20;;;7.87;28.90;96165.44;10539778;28;1777;-78
2022/03/09 12:43:30;;;;;;;;;;;8.70;80.00;;;7.91;29.65;96155.06;10523598;28;1977;-81
2022/03/09 12:48:34;;;;;;;;;;;8.80;79.60;;;8.08;29.18;96155.81;10536693;28;1614;-75
2022/03/09 12:53:43;;;;;;;;;;;8.80;82.00;;;8.17;29.41;96157.00;10499631;28;1781;-77
2022/03/09 12:58:48;;;;;;;;;;;9.10;94.70;;;8.17;30.79;96150.84;10491747;28;1821;-78
2022/03/09 13:03:52;;;;;;;;;;;9.00;91.70;;;8.22;30.40;96137.50;10491171;28;1914;-77
2022/03/09 13:08:55;;;;;;;;;;;9.40;86.90;;;8.26;30.45;96134.06;10489513;28;1737;-78
2022/03/09 13:13:58;;;;;;;;;;;9.10;83.40;;;8.17;30.47;96124.06;10492215;28;1868;-80
2022/03/09 13:19:02;;;;;;;;;;;9.10;83.90;;;8.34;30.95;96122.94;10489239;28;1801;-77
2022/03/09 13:24:05;;;;;;;;;;;9.10;84.30;;;8.33;29.18;96123.16;10485443;28;1974;-79
2022/03/09 13:29:08;;;;;;;;;;;9.20;80.40;;;8.41;30.28;96114.72;10486484;28;1842;-77
2022/03/09 13:34:11;;;;;;;;;;;9.20;81.30;;;8.47;29.53;96119.09;10482005;28;1896;-76
2022/03/09 13:39:14;;;;;;;;;;;9.30;80.30;;;8.57;29.75;96119.19;10488322;28;1865;-83
2022/03/09 13:44:17;;;;;;;;;;;9.30;80.30;;;8.57;29.92;96119.19;10465498;28;1985;-75
2022/03/09 13:49:20;;;;;;;;;;;9.40;77.60;;;8.57;30.31;96124.53;10466830;28;1780;-78
2022/03/09 13:54:23;;;;;;;;;;;9.40;76.40;;;8.65;29.86;96109.88;10486625;28;1964;-77
2022/03/09 13:59:26;;;;;;;;;;;9.50;74.90;;;8.72;29.43;96105.16;10469349;28;1868;-76
2022/03/09 14:04:29;;;;;;;;;;;9.60;79.10;;;8.66;29.48;96115.00;10484606;28;1906;-79
2022/03/09 14:09:32;;;;;;;;;;;9.60;75.20;;;8.70;29.54;96109.13;10489277;28;1805;-76
2022/03/09 14:14:35;;;;;;;;;;;9.40;84.30;;;8.79;29.70;96108.44;10559056;22;2526;-80
2022/03/09 14:19:38;;;;;;;;;;;9.60;83.20;;;8.81;29.88;96110.84;10547335;28;1947;-77
2022/03/09 14:24:41;;;;;;;;;;;9.70;82.80;;;8.73;29.91;96103.28;10543030;28;1933;-80
2022/03/09 14:29:46;;;;;;;;;;;9.60;82.00;;;8.82;29.71;96109.78;10523655;28;1753;-77
2022/03/09 14:34:49;;;;;;;;;;;9.60;81.50;;;8.67;30.72;96102.41;10537617;28;1833;-76
2022/03/09 14:39:52;;;;;;;;;;;9.60;81.80;;;8.83;30.34;96106.84;10515761;28;1890;-76
2022/03/09 14:44:57;;;;;;;;;;;9.60;81.90;;;8.87;29.71;96113.31;10520153;28;1970;-80
2022/03/09 14:50:00;;;;;;;;;;;9.70;81.90;;;8.91;30.38;96110.94;10553285;28;2073;-81
2022/03/09 14:55:03;;;;;;;;;;;9.70;84.00;;;8.82;31.02;96115.13;10534217;28;1749;-79
2022/03/09 15:00:08;;;;;;;;;;;9.80;85.00;;;8.81;30.74;96108.97;10551350;28;1959;-80
2022/03/09 15:05:11;;;;;;;;;;;9.70;84.40;;;8.77;31.28;96104.38;10550281;28;1909;-81
2022/03/09 15:10:14;;;;;;;;;;;9.70;84.30;;;8.84;31.46;96108.47;10520260;28;1899;-79
2022/03/09 15:15:18;;;;;;;;;;;9.80;84.50;;;8.71;31.19;96102.69;10527197;28;1963;-79
2022/03/09 15:20:22;;;;;;;;;;;9.60;84.20;;;8.78;32.00;96108.66;10567682;28;1756;-78
2022/03/09 15:25:26;;;;;;;;;;;9.60;84.50;;;8.64;32.11;96114.44;10560910;28;1950;-81
2022/03/09 15:30:31;;;;;;;;;;;9.60;85.10;;;8.65;32.84;96112.56;10538927;28;1910;-79
2022/03/09 15:35:34;;;;;;;;;;;9.50;85.60;;;8.64;32.56;96103.72;10544573;28;1765;-81
2022/03/09 15:40:50;;;;;;;;;;;9.50;85.90;;;8.61;33.07;96112.25;10517634;28;1876;-77
2022/03/09 15:45:57;;;;;;;;;;;9.50;86.50;;;8.51;32.80;96120.19;10494130;28;2093;-77
2022/03/09 15:51:01;;;;;;;;;;;9.40;88.10;;;8.36;33.30;96112.81;10514986;28;1860;-79
2022/03/09 15:56:04;;;;;;;;;;;9.40;77.20;;;8.57;33.20;96119.19;10537731;28;1867;-71
2022/03/09 16:01:07;;;;;;;;;;;9.50;77.40;;;8.51;33.50;96114.03;10505912;28;1971;-71
2022/03/09 16:06:13;;;;;;;;;;;9.50;77.90;;;8.32;34.89;96110.84;10521177;28;2105;-85
2022/03/09 16:11:15;;;;;;;;;;;9.50;78.50;;;8.24;35.34;96111.28;10513436;28;2343;-77
2022/03/09 16:16:23;;;;;;;;;;;9.30;79.30;;;8.23;35.50;96118.50;10519829;28;1884;-76
2022/03/09 16:21:27;;;;;;;;;;;9.30;79.60;;;8.19;35.85;96111.22;10512731;28;1860;-75
2022/03/09 16:26:31;;;;;;;;;;;9.30;80.10;;;8.14;36.21;96120.00;10552580;28;1910;-77
2022/03/09 16:31:35;;;;;;;;;;;9.20;80.10;;;8.12;36.30;96124.81;10553848;28;1872;-82
2022/03/09 16:36:38;;;;;;;;;;;9.30;80.40;;;8.03;36.81;96135.16;10541743;28;1923;-79
2022/03/09 16:41:41;;;;;;;;;;;9.20;80.80;;;7.85;36.98;96133.56;10541639;28;1957;-77
2022/03/09 16:46:44;;;;;;;;;;;9.00;81.20;;;7.72;36.82;96135.78;10544432;28;1927;-77
2022/03/09 16:51:47;;;;;;;;;;;8.90;81.40;;;7.51;37.57;96142.72;10541235;28;1826;-76
2022/03/09 16:56:50;;;;;;;;;;;8.70;81.90;;;7.35;38.64;96148.88;10544113;28;1799;-77
2022/03/09 17:01:53;;;;;;;;;;;8.70;82.40;;;7.19;38.71;96155.84;10538732;28;2258;-77
2022/03/09 17:07:01;;;;;;;;;;;8.50;82.70;;;7.01;38.57;96159.56;10514439;28;1980;-77
2022/03/09 17:12:04;;;;;;;;;;;8.30;82.90;;;6.62;40.20;96172.78;10540918;28;2017;-78
2022/03/09 17:17:07;;;;;;;;;;;8.10;83.60;;;6.57;40.15;96175.34;10509928;28;2263;-77
2022/03/09 17:22:10;;;;;;;;;;;7.90;84.20;;;6.50;40.93;96174.66;10538815;28;2016;-78
2022/03/09 17:27:13;;;;;;;;;;;7.90;84.20;;;6.38;40.85;96180.03;10550091;28;1892;-77
2022/03/09 17:32:18;;;;;;;;;;;7.90;84.50;;;6.32;41.09;96183.66;10554325;28;1857;-76
2022/03/09 17:37:22;;;;;;;;;;;7.60;84.80;;;6.20;41.20;96193.56;10551801;28;1832;-78
2022/03/09 17:42:25;;;;;;;;;;;7.40;84.80;;;5.84;41.96;96192.75;10550356;28;1973;-77
2022/03/09 17:47:28;;;;;;;;;;;7.30;85.10;;;5.93;40.93;96196.72;10533944;28;1828;-79
2022/03/09 17:52:32;;;;;;;;;;;7.20;85.10;;;5.91;41.08;96200.66;10525070;28;1925;-78
2022/03/09 17:57:36;;;;;;;;;;;7.10;85.30;;;5.76;41.94;96205.63;10536847;28;1780;-77
2022/03/09 18:02:39;;;;;;;;;;;7.00;85.50;;;5.68;42.18;96201.47;10543831;28;1918;-82
2022/03/09 18:07:42;;;;;;;;;;;6.90;85.40;;;5.66;41.95;96200.88;10546886;28;2041;-80
2022/03/09 18:12:47;;;;;;;;;;;6.80;85.70;;;5.58;41.78;96212.69;10545638;28;1897;-80
2022/03/09 18:17:49;;;;;;;;;;;6.80;85.60;;;5.41;42.40;96209.94;10549656;28;1892;-76
2022/03/09 18:22:54;;;;;;;;;;;6.80;85.80;;;5.32;42.56;96210.47;10523144;28;2007;-81
2022/03/09 18:27:57;;;;;;;;;;;6.60;85.90;;;5.13;42.92;96217.75;10510467;28;1923;-76
2022/03/09 18:33:00;;;;;;;;;;;6.50;86.30;;;5.05;43.61;96218.06;10516658;28;1796;-75
2022/03/09 18:38:03;;;;;;;;;;;6.40;86.80;;;4.67;45.27;96224.53;10510585;28;1850;-76
2022/03/09 18:43:06;;;;;;;;;;;6.30;87.70;;;4.69;44.77;96224.31;10496746;28;1973;-75
2022/03/09 18:48:11;;;;;;;;;;;6.00;87.90;;;4.58;44.85;96224.03;10523817;22;3787;-67
2022/03/09 18:53:14;;;;;;;;;;;5.90;88.00;;;4.51;45.07;96231.28;10517782;28;1978;-68
2022/03/09 18:58:24;;;;;;;;;;;5.80;88.40;;;4.55;44.90;96231.66;10537565;28;1974;-68
2022/03/09 19:03:27;;;;;;;;;;;5.70;88.60;;;4.26;45.82;96239.38;10513370;28;1967;-70
2022/03/09 19:08:29;;;;;;;;;;;5.60;89.00;;;4.17;47.26;96240.69;10496414;28;1896;-70
2022/03/09 19:13:32;;;;;;;;;;;5.50;89.60;;;4.16;46.92;96240.94;10526620;28;2149;-69
2022/03/09 19:18:35;;;;;;;;;;;5.40;90.00;;;4.10;46.54;96244.47;10525301;28;1840;-69
2022/03/09 19:23:39;;;;;;;;;;;5.30;89.70;;;4.15;47.14;96241.97;10502856;28;1976;-68
2022/03/09 19:28:42;;;;;;;;;;;5.40;90.80;;;3.84;48.01;96250.88;10524425;28;1916;-69
2022/03/09 19:33:45;;;;;;;;;;;5.30;90.60;;;3.82;48.01;96253.75;10532549;28;1845;-69
2022/03/09 19:38:47;;;;;;;;;;;5.10;91.00;;;3.84;48.18;96261.50;10539303;28;2026;-69
2022/03/09 19:43:50;;;;;;;;;;;5.00;91.00;;;3.64;48.55;96262.50;10518765;28;1906;-69
2022/03/09 19:48:53;;;;;;;;;;;5.00;91.60;;;3.43;49.84;96266.34;10505812;28;1917;-70
2022/03/09 19:53:56;;;;;;;;;;;4.60;91.80;;;3.55;49.62;96270.97;10502132;28;1894;-68
2022/03/09 19:59:00;;;;;;;;;;;4.60;92.20;;;3.37;50.18;96274.38;10503270;28;1959;-69
2022/03/09 20:04:03;;;;;;;;;;;4.60;92.70;;;3.36;49.89;96280.72;10512278;28;1975;-69
2022/03/09 20:09:06;;;;;;;;;;;4.50;92.70;;;3.17;51.59;96277.97;10500190;28;2962;-70
2022/03/09 20:14:09;;;;;;;;;;;4.40;98.90;;;3.06;51.46;96276.03;10503157;28;2277;-68
2022/03/09 20:19:12;;;;;;;;;;;4.30;95.90;;;2.82;52.74;96280.25;10525990;28;1790;-70
2022/03/09 20:24:15;;;;;;;;;;;4.10;94.50;;;2.72;53.80;96286.00;10503126;28;1971;-70
2022/03/09 20:29:19;;;;;;;;;;;3.90;99.00;;;2.62;54.13;96296.25;10521359;28;1844;-69
2022/03/09 20:34:22;;;;;;;;;;;4.00;95.70;;;2.55;55.56;96298.13;10522071;28;1899;-70
2022/03/09 20:39:26;;;;;;;;;;;4.00;97.10;;;2.43;55.66;96302.47;10497721;28;2106;-71
2022/03/09 20:44:29;;;;;;;;;;;3.90;97.40;;;2.31;56.67;96302.28;10514518;28;1975;-70
2022/03/09 20:49:32;;;;;;;;;;;3.70;97.70;;;2.29;57.23;96300.84;10512275;28;2043;-69
2022/03/09 20:54:34;;;;;;;;;;;3.50;98.30;;;2.29;57.24;96303.50;10505871;28;1760;-70
2022/03/09 20:59:38;;;;;;;;;;;3.50;98.80;;;2.24;57.37;96308.63;10499857;28;1854;-69
2022/03/09 21:04:41;;;;;;;;;;;3.40;98.80;;;2.20;57.49;96302.91;10522641;28;1905;-69
2022/03/09 21:09:45;;;;;;;;;;;3.30;99.20;;;2.15;58.09;96305.38;10520165;28;1939;-70
2022/03/09 21:14:48;;;;;;;;;;;3.40;99.60;;;2.10;58.13;96318.44;10501750;28;1861;-71
2022/03/09 21:19:51;;;;;;;;;;;3.30;99.90;;;1.98;60.44;96315.63;10506345;28;1851;-71
2022/03/09 21:25:06;;;;;;;;;;;3.20;99.90;;;1.96;59.50;96301.75;10499125;28;2032;-70
2022/03/09 21:30:09;;;;;;;;;;;3.10;99.90;;;1.89;58.93;96312.34;10504776;28;1827;-70
2022/03/09 21:35:15;;;;;;;;;;;3.00;99.90;;;1.92;59.43;96316.44;10501515;28;1828;-69
2022/03/09 21:40:18;;;;;;;;;;;3.00;99.90;;;1.81;60.05;96314.41;10503236;28;1888;-70
2022/03/09 21:45:23;;;;;;;;;;;3.00;99.90;;;1.70;60.08;96322.97;10528851;28;1914;-70
2022/03/09 21:50:39;;;;;;;;;;;2.90;99.90;;;1.67;60.79;96323.41;10522180;28;1882;-70
2022/03/09 21:55:46;;;;;;;;;;;2.80;99.90;;;1.61;60.76;96328.50;10507093;28;2035;-71
2022/03/09 22:00:51;;;;;;;;;;;2.80;99.90;;;1.56;61.62;96330.13;10504763;28;1966;-70
2022/03/09 22:05:55;;;;;;;;;;;2.80;99.90;;;1.51;62.02;96325.41;10521429;28;1902;-70
2022/03/09 22:10:59;;;;;;;;;;;2.70;99.90;;;1.52;62.54;96319.09;10505991;28;1861;-70
2022/03/09 22:16:02;;;;;;;;;;;2.80;99.90;;;1.46;62.42;96337.63;10521957;28;2113;-69
2022/03/09 22:21:06;;;;;;;;;;;2.70;99.90;;;1.35;62.95;96325.81;10498363;28;2021;-68
2022/03/09 22:26:09;;;;;;;;;;;2.60;99.90;;;1.32;63.21;96331.50;10501531;28;2000;-70
2022/03/09 22:31:12;;;;;;;;;;;2.50;99.90;;;1.27;64.46;96328.63;10528877;28;1473;-71
2022/03/09 22:36:16;;;;;;;;;;;2.40;99.90;;;1.20;63.78;96319.88;10518063;28;1500;-70
2022/03/09 22:41:20;;;;;;;;;;;2.40;99.90;;;1.10;64.61;96328.22;10524178;28;1717;-70
2022/03/09 22:46:23;;;;;;;;;;;2.30;99.90;;;1.08;64.77;96331.06;10527391;28;1987;-70
2022/03/09 22:51:32;;;;;;;;;;;2.30;99.90;;;1.03;64.85;96333.50;10519411;28;1765;-70
2022/03/09 22:56:36;;;;;;;;;;;2.30;99.90;;;0.92;65.19;96334.06;10496230;28;1858;-70
2022/03/09 23:01:39;;;;;;;;;;;2.20;99.90;;;0.83;65.35;96316.75;10499600;28;1833;-69
2022/03/09 23:06:42;;;;;;;;;;;2.10;99.90;;;0.81;65.87;96318.75;10520850;28;1918;-68
2022/03/09 23:11:45;;;;;;;;;;;2.00;99.90;;;0.83;65.94;96322.06;10503788;28;1893;-71
2022/03/09 23:16:48;;;;;;;;;;;2.00;99.90;;;0.79;65.90;96320.81;10521056;28;1856;-70
2022/03/09 23:21:52;;;;;;;;;;;2.00;99.90;;;0.67;66.20;96325.84;10521556;28;1746;-70
2022/03/09 23:26:55;;;;;;;;;;;1.80;99.90;;;0.64;66.33;96334.19;10526599;28;1976;-70
2022/03/09 23:31:58;;;;;;;;;;;1.90;99.90;;;0.53;67.04;96334.75;10529443;28;1758;-69
2022/03/09 23:37:05;;;;;;;;;;;1.70;99.90;;;0.49;68.54;96341.44;10527245;28;1821;-69
2022/03/09 23:42:08;;;;;;;;;;;1.80;99.90;;;0.39;69.09;96338.34;10525666;28;1772;-70
2022/03/09 23:47:11;;;;;;;;;;;1.60;99.90;;;0.30;68.29;96339.50;10513093;28;1938;-68
2022/03/09 23:52:15;;;;;;;;;;;1.50;99.90;;;0.23;69.07;96340.28;10520476;28;1949;-69
2022/03/09 23:57:20;;;;;;;;;;;;;;;0.18;69.58;96344.53;10498889;28;1862;-70
